Sault Ste Marie, Michigan
Current Conditions -  °F | °C
As of 9:55 PM on Saturday 22 Nov 2014 (Local Time) from KANJ Reporting Station
Overcast Overcast  
Wind Chill: 31°   Ceiling: 1000
Heat Index: 35°   Visibility: 7mi
Dew Point: 31°   Wind: 5mph
Humidity: 85%   Direction: 240°WSW
Pressure: 29.77"   Gusts: NA
Location:  46.48°N, 84.37°W
Report Text: KANJ 230255Z AUTO 24004KT 7SM OVC010 02/M01 A2977 RMK AO2 SLP085 T00171006 53007
Loading
Personal Weather Stations






























Interactive Weather Map New forecast layout! Learn more

10-Day Weather Forecast

Advertisements
Track Severe Weather on mobile